sensor_id;sensor_type;location;lat;lon;timestamp;temperature;humidity
49184;DHT22;35021;49.214;12.270;2023-05-07T00:02:00;21.00;49.50
49184;DHT22;35021;49.214;12.270;2023-05-07T00:04:28;21.00;49.40
49184;DHT22;35021;49.214;12.270;2023-05-07T00:06:55;21.00;49.30
49184;DHT22;35021;49.214;12.270;2023-05-07T00:09:22;21.00;49.30
49184;DHT22;35021;49.214;12.270;2023-05-07T00:11:49;21.00;49.30
49184;DHT22;35021;49.214;12.270;2023-05-07T00:14:15;21.00;49.20
49184;DHT22;35021;49.214;12.270;2023-05-07T00:16:42;21.00;49.20
49184;DHT22;35021;49.214;12.270;2023-05-07T00:19:09;21.00;49.10
49184;DHT22;35021;49.214;12.270;2023-05-07T00:21:36;21.00;49.00
49184;DHT22;35021;49.214;12.270;2023-05-07T00:24:04;21.00;49.00
49184;DHT22;35021;49.214;12.270;2023-05-07T00:26:31;21.00;48.90
49184;DHT22;35021;49.214;12.270;2023-05-07T00:28:58;21.00;48.90
49184;DHT22;35021;49.214;12.270;2023-05-07T00:31:25;21.00;48.90
49184;DHT22;35021;49.214;12.270;2023-05-07T00:33:51;21.00;48.90
49184;DHT22;35021;49.214;12.270;2023-05-07T00:36:18;21.00;48.80
49184;DHT22;35021;49.214;12.270;2023-05-07T00:38:45;21.00;48.70
49184;DHT22;35021;49.214;12.270;2023-05-07T00:41:12;21.00;48.70
49184;DHT22;35021;49.214;12.270;2023-05-07T00:43:39;21.00;48.70
49184;DHT22;35021;49.214;12.270;2023-05-07T00:46:06;21.00;48.60
49184;DHT22;35021;49.214;12.270;2023-05-07T00:48:33;21.00;48.50
49184;DHT22;35021;49.214;12.270;2023-05-07T00:51:00;21.00;48.50
49184;DHT22;35021;49.214;12.270;2023-05-07T00:53:27;21.00;48.50
49184;DHT22;35021;49.214;12.270;2023-05-07T00:55:55;21.00;48.40
49184;DHT22;35021;49.214;12.270;2023-05-07T00:58:23;21.00;48.40
49184;DHT22;35021;49.214;12.270;2023-05-07T01:00:50;21.00;48.40
49184;DHT22;35021;49.214;12.270;2023-05-07T01:03:17;21.00;48.40
49184;DHT22;35021;49.214;12.270;2023-05-07T01:05:45;21.00;48.40
49184;DHT22;35021;49.214;12.270;2023-05-07T01:08:14;21.00;48.30
49184;DHT22;35021;49.214;12.270;2023-05-07T01:10:42;21.00;48.20
49184;DHT22;35021;49.214;12.270;2023-05-07T01:13:10;21.00;48.20
49184;DHT22;35021;49.214;12.270;2023-05-07T01:15:38;21.00;48.10
49184;DHT22;35021;49.214;12.270;2023-05-07T01:18:05;21.00;48.00
49184;DHT22;35021;49.214;12.270;2023-05-07T01:20:33;21.00;48.00
49184;DHT22;35021;49.214;12.270;2023-05-07T01:23:01;21.00;47.90
49184;DHT22;35021;49.214;12.270;2023-05-07T01:25:28;21.00;47.80
49184;DHT22;35021;49.214;12.270;2023-05-07T01:27:55;21.00;47.80
49184;DHT22;35021;49.214;12.270;2023-05-07T01:30:22;21.00;47.80
49184;DHT22;35021;49.214;12.270;2023-05-07T01:32:53;21.00;47.70
49184;DHT22;35021;49.214;12.270;2023-05-07T01:35:27;21.00;47.60
49184;DHT22;35021;49.214;12.270;2023-05-07T01:37:56;21.00;47.60
49184;DHT22;35021;49.214;12.270;2023-05-07T01:40:24;21.00;47.60
49184;DHT22;35021;49.214;12.270;2023-05-07T01:42:51;21.00;47.50
49184;DHT22;35021;49.214;12.270;2023-05-07T01:45:18;20.90;47.40
49184;DHT22;35021;49.214;12.270;2023-05-07T01:47:45;21.00;47.40
49184;DHT22;35021;49.214;12.270;2023-05-07T01:50:14;20.90;47.30
49184;DHT22;35021;49.214;12.270;2023-05-07T01:52:42;21.00;47.30
49184;DHT22;35021;49.214;12.270;2023-05-07T01:55:09;20.90;47.20
49184;DHT22;35021;49.214;12.270;2023-05-07T01:57:36;20.90;47.30
49184;DHT22;35021;49.214;12.270;2023-05-07T02:00:03;20.90;47.20
49184;DHT22;35021;49.214;12.270;2023-05-07T02:02:32;20.90;47.20
49184;DHT22;35021;49.214;12.270;2023-05-07T02:04:59;20.90;47.10
49184;DHT22;35021;49.214;12.270;2023-05-07T02:07:28;20.90;47.20
49184;DHT22;35021;49.214;12.270;2023-05-07T02:09:55;20.90;47.20
49184;DHT22;35021;49.214;12.270;2023-05-07T02:12:22;20.80;47.20
49184;DHT22;35021;49.214;12.270;2023-05-07T02:14:49;20.80;47.20
49184;DHT22;35021;49.214;12.270;2023-05-07T02:17:17;20.80;47.20
49184;DHT22;35021;49.214;12.270;2023-05-07T02:19:43;20.70;47.20
49184;DHT22;35021;49.214;12.270;2023-05-07T02:22:10;20.70;47.20
49184;DHT22;35021;49.214;12.270;2023-05-07T02:24:37;20.70;47.20
49184;DHT22;35021;49.214;12.270;2023-05-07T02:27:04;20.70;47.10
49184;DHT22;35021;49.214;12.270;2023-05-07T02:29:31;20.70;47.10
49184;DHT22;35021;49.214;12.270;2023-05-07T02:31:58;20.70;47.00
49184;DHT22;35021;49.214;12.270;2023-05-07T02:34:25;20.70;47.00
49184;DHT22;35021;49.214;12.270;2023-05-07T02:36:52;20.70;47.00
49184;DHT22;35021;49.214;12.270;2023-05-07T02:39:19;20.70;47.00
49184;DHT22;35021;49.214;12.270;2023-05-07T02:41:46;20.70;47.00
49184;DHT22;35021;49.214;12.270;2023-05-07T02:44:13;20.70;46.90
49184;DHT22;35021;49.214;12.270;2023-05-07T02:46:39;20.70;46.90
49184;DHT22;35021;49.214;12.270;2023-05-07T02:49:06;20.70;46.80
49184;DHT22;35021;49.214;12.270;2023-05-07T02:51:33;20.70;46.80
49184;DHT22;35021;49.214;12.270;2023-05-07T02:54:01;20.70;46.80
49184;DHT22;35021;49.214;12.270;2023-05-07T02:56:28;20.70;46.80
49184;DHT22;35021;49.214;12.270;2023-05-07T02:58:55;20.70;46.70
49184;DHT22;35021;49.214;12.270;2023-05-07T03:01:21;20.70;46.70
49184;DHT22;35021;49.214;12.270;2023-05-07T03:03:49;20.70;46.70
49184;DHT22;35021;49.214;12.270;2023-05-07T03:06:16;20.70;46.70
49184;DHT22;35021;49.214;12.270;2023-05-07T03:08:43;20.70;46.70
49184;DHT22;35021;49.214;12.270;2023-05-07T03:11:10;20.70;46.70
49184;DHT22;35021;49.214;12.270;2023-05-07T03:13:37;20.70;46.70
49184;DHT22;35021;49.214;12.270;2023-05-07T03:16:04;20.70;46.60
49184;DHT22;35021;49.214;12.270;2023-05-07T03:18:32;20.70;46.60
49184;DHT22;35021;49.214;12.270;2023-05-07T03:20:58;20.70;46.60
49184;DHT22;35021;49.214;12.270;2023-05-07T03:23:26;20.70;46.50
49184;DHT22;35021;49.214;12.270;2023-05-07T03:25:53;20.70;46.50
49184;DHT22;35021;49.214;12.270;2023-05-07T03:28:20;20.70;46.40
49184;DHT22;35021;49.214;12.270;2023-05-07T03:30:48;20.70;46.40
49184;DHT22;35021;49.214;12.270;2023-05-07T03:33:16;20.70;46.40
49184;DHT22;35021;49.214;12.270;2023-05-07T03:35:43;20.70;46.40
49184;DHT22;35021;49.214;12.270;2023-05-07T03:38:11;20.70;46.40
49184;DHT22;35021;49.214;12.270;2023-05-07T03:40:37;20.70;46.40
49184;DHT22;35021;49.214;12.270;2023-05-07T03:43:04;20.70;46.40
49184;DHT22;35021;49.214;12.270;2023-05-07T03:45:31;20.70;46.40
49184;DHT22;35021;49.214;12.270;2023-05-07T03:47:58;20.70;46.30
49184;DHT22;35021;49.214;12.270;2023-05-07T03:50:25;20.70;46.30
49184;DHT22;35021;49.214;12.270;2023-05-07T03:52:52;20.70;46.30
49184;DHT22;35021;49.214;12.270;2023-05-07T03:55:19;20.70;46.30
49184;DHT22;35021;49.214;12.270;2023-05-07T03:57:46;20.70;46.30
49184;DHT22;35021;49.214;12.270;2023-05-07T04:00:13;20.70;46.30
49184;DHT22;35021;49.214;12.270;2023-05-07T04:02:40;20.70;46.30
49184;DHT22;35021;49.214;12.270;2023-05-07T04:05:08;20.70;46.30
49184;DHT22;35021;49.214;12.270;2023-05-07T04:07:34;20.70;46.40
49184;DHT22;35021;49.214;12.270;2023-05-07T04:10:01;20.70;46.40
49184;DHT22;35021;49.214;12.270;2023-05-07T04:12:29;20.70;46.40
49184;DHT22;35021;49.214;12.270;2023-05-07T04:14:56;20.70;46.50
49184;DHT22;35021;49.214;12.270;2023-05-07T04:17:23;20.70;46.40
49184;DHT22;35021;49.214;12.270;2023-05-07T04:19:49;20.70;46.50
49184;DHT22;35021;49.214;12.270;2023-05-07T04:22:16;20.70;46.50
49184;DHT22;35021;49.214;12.270;2023-05-07T04:24:43;20.60;46.50
49184;DHT22;35021;49.214;12.270;2023-05-07T04:27:10;20.60;46.40
49184;DHT22;35021;49.214;12.270;2023-05-07T04:29:37;20.60;46.50
49184;DHT22;35021;49.214;12.270;2023-05-07T04:32:09;20.60;46.50
49184;DHT22;35021;49.214;12.270;2023-05-07T04:34:36;20.60;46.50
49184;DHT22;35021;49.214;12.270;2023-05-07T04:37:03;20.70;46.60
49184;DHT22;35021;49.214;12.270;2023-05-07T04:39:30;20.70;46.60
49184;DHT22;35021;49.214;12.270;2023-05-07T04:41:57;20.70;46.60
49184;DHT22;35021;49.214;12.270;2023-05-07T04:44:24;20.80;46.60
49184;DHT22;35021;49.214;12.270;2023-05-07T04:46:51;20.80;46.60
49184;DHT22;35021;49.214;12.270;2023-05-07T04:49:18;20.90;46.50
49184;DHT22;35021;49.214;12.270;2023-05-07T04:51:45;21.00;46.40
49184;DHT22;35021;49.214;12.270;2023-05-07T04:54:12;21.10;46.30
49184;DHT22;35021;49.214;12.270;2023-05-07T04:56:39;21.20;46.30
49184;DHT22;35021;49.214;12.270;2023-05-07T04:59:06;21.30;46.20
49184;DHT22;35021;49.214;12.270;2023-05-07T05:01:33;21.40;46.10
49184;DHT22;35021;49.214;12.270;2023-05-07T05:04:00;21.50;46.00
49184;DHT22;35021;49.214;12.270;2023-05-07T05:06:28;21.60;46.00
49184;DHT22;35021;49.214;12.270;2023-05-07T05:08:55;21.60;45.90
49184;DHT22;35021;49.214;12.270;2023-05-07T05:11:22;21.70;45.80
49184;DHT22;35021;49.214;12.270;2023-05-07T05:13:49;21.80;45.80
49184;DHT22;35021;49.214;12.270;2023-05-07T05:16:16;21.80;45.80
49184;DHT22;35021;49.214;12.270;2023-05-07T05:18:43;21.80;45.80
49184;DHT22;35021;49.214;12.270;2023-05-07T05:21:10;21.70;45.90
49184;DHT22;35021;49.214;12.270;2023-05-07T05:23:37;21.70;46.10
49184;DHT22;35021;49.214;12.270;2023-05-07T05:26:04;21.70;46.30
49184;DHT22;35021;49.214;12.270;2023-05-07T05:28:31;21.60;46.50
49184;DHT22;35021;49.214;12.270;2023-05-07T05:30:57;21.60;46.70
49184;DHT22;35021;49.214;12.270;2023-05-07T05:33:24;21.50;46.90
49184;DHT22;35021;49.214;12.270;2023-05-07T05:35:51;21.50;47.10
49184;DHT22;35021;49.214;12.270;2023-05-07T05:38:18;21.50;47.20
49184;DHT22;35021;49.214;12.270;2023-05-07T05:40:45;21.60;47.30
49184;DHT22;35021;49.214;12.270;2023-05-07T05:43:13;21.60;47.30
49184;DHT22;35021;49.214;12.270;2023-05-07T05:45:40;21.60;47.20
49184;DHT22;35021;49.214;12.270;2023-05-07T05:48:07;21.70;47.00
49184;DHT22;35021;49.214;12.270;2023-05-07T05:50:35;21.70;47.00
49184;DHT22;35021;49.214;12.270;2023-05-07T05:53:04;21.80;46.80
49184;DHT22;35021;49.214;12.270;2023-05-07T05:55:31;21.80;46.70
49184;DHT22;35021;49.214;12.270;2023-05-07T05:58:00;21.90;46.70
49184;DHT22;35021;49.214;12.270;2023-05-07T06:00:29;21.90;46.70
49184;DHT22;35021;49.214;12.270;2023-05-07T06:02:56;21.80;46.70
49184;DHT22;35021;49.214;12.270;2023-05-07T06:05:23;21.80;46.80
49184;DHT22;35021;49.214;12.270;2023-05-07T06:07:50;21.80;46.90
49184;DHT22;35021;49.214;12.270;2023-05-07T06:10:17;21.70;47.00
49184;DHT22;35021;49.214;12.270;2023-05-07T06:12:44;21.60;47.20
49184;DHT22;35021;49.214;12.270;2023-05-07T06:15:11;21.60;47.30
49184;DHT22;35021;49.214;12.270;2023-05-07T06:17:38;21.60;47.40
49184;DHT22;35021;49.214;12.270;2023-05-07T06:20:06;21.50;47.40
49184;DHT22;35021;49.214;12.270;2023-05-07T06:22:33;21.50;47.30
49184;DHT22;35021;49.214;12.270;2023-05-07T06:25:00;21.60;47.30
49184;DHT22;35021;49.214;12.270;2023-05-07T06:27:27;21.60;47.30
49184;DHT22;35021;49.214;12.270;2023-05-07T06:29:54;21.70;47.30
49184;DHT22;35021;49.214;12.270;2023-05-07T06:32:21;21.70;47.20
49184;DHT22;35021;49.214;12.270;2023-05-07T06:34:48;21.70;47.20
49184;DHT22;35021;49.214;12.270;2023-05-07T06:37:15;21.80;47.20
49184;DHT22;35021;49.214;12.270;2023-05-07T06:39:42;21.80;47.10
49184;DHT22;35021;49.214;12.270;2023-05-07T06:42:09;21.80;47.00
49184;DHT22;35021;49.214;12.270;2023-05-07T06:44:36;21.90;47.10
49184;DHT22;35021;49.214;12.270;2023-05-07T06:47:03;21.80;47.00
49184;DHT22;35021;49.214;12.270;2023-05-07T06:49:30;21.80;47.00
49184;DHT22;35021;49.214;12.270;2023-05-07T06:51:58;21.70;47.20
49184;DHT22;35021;49.214;12.270;2023-05-07T06:54:24;21.70;47.40
49184;DHT22;35021;49.214;12.270;2023-05-07T06:56:51;21.60;47.50
49184;DHT22;35021;49.214;12.270;2023-05-07T06:59:18;21.50;47.70
49184;DHT22;35021;49.214;12.270;2023-05-07T07:01:46;21.50;47.80
49184;DHT22;35021;49.214;12.270;2023-05-07T07:04:13;21.50;47.90
49184;DHT22;35021;49.214;12.270;2023-05-07T07:06:40;21.50;48.00
49184;DHT22;35021;49.214;12.270;2023-05-07T07:09:06;21.40;48.00
49184;DHT22;35021;49.214;12.270;2023-05-07T07:11:33;21.40;48.00
49184;DHT22;35021;49.214;12.270;2023-05-07T07:14:00;21.50;48.10
49184;DHT22;35021;49.214;12.270;2023-05-07T07:16:28;21.50;48.10
49184;DHT22;35021;49.214;12.270;2023-05-07T07:18:55;21.50;47.90
49184;DHT22;35021;49.214;12.270;2023-05-07T07:21:22;21.50;48.00
49184;DHT22;35021;49.214;12.270;2023-05-07T07:23:49;21.60;48.00
49184;DHT22;35021;49.214;12.270;2023-05-07T07:26:17;21.60;48.00
49184;DHT22;35021;49.214;12.270;2023-05-07T07:28:45;21.70;48.00
49184;DHT22;35021;49.214;12.270;2023-05-07T07:31:13;21.80;47.80
49184;DHT22;35021;49.214;12.270;2023-05-07T07:33:40;21.80;47.70
49184;DHT22;35021;49.214;12.270;2023-05-07T07:36:07;21.80;47.70
49184;DHT22;35021;49.214;12.270;2023-05-07T07:38:34;21.80;47.70
49184;DHT22;35021;49.214;12.270;2023-05-07T07:41:02;21.80;47.80
49184;DHT22;35021;49.214;12.270;2023-05-07T07:43:29;21.80;47.90
49184;DHT22;35021;49.214;12.270;2023-05-07T07:45:56;21.80;48.00
49184;DHT22;35021;49.214;12.270;2023-05-07T07:48:23;21.80;48.10
49184;DHT22;35021;49.214;12.270;2023-05-07T07:50:50;21.70;48.10
49184;DHT22;35021;49.214;12.270;2023-05-07T07:53:18;21.70;48.40
49184;DHT22;35021;49.214;12.270;2023-05-07T07:55:45;21.70;48.50
49184;DHT22;35021;49.214;12.270;2023-05-07T07:58:12;21.70;48.50
49184;DHT22;35021;49.214;12.270;2023-05-07T08:00:39;21.70;48.50
49184;DHT22;35021;49.214;12.270;2023-05-07T08:03:09;21.80;48.40
49184;DHT22;35021;49.214;12.270;2023-05-07T08:05:36;21.80;48.20
49184;DHT22;35021;49.214;12.270;2023-05-07T08:08:05;21.80;48.10
49184;DHT22;35021;49.214;12.270;2023-05-07T08:10:32;21.80;48.00
49184;DHT22;35021;49.214;12.270;2023-05-07T08:13:01;21.90;48.00
49184;DHT22;35021;49.214;12.270;2023-05-07T08:15:30;21.90;48.00
49184;DHT22;35021;49.214;12.270;2023-05-07T08:17:58;21.90;48.10
49184;DHT22;35021;49.214;12.270;2023-05-07T08:20:28;21.90;48.10
49184;DHT22;35021;49.214;12.270;2023-05-07T08:22:55;21.80;48.00
49184;DHT22;35021;49.214;12.270;2023-05-07T08:25:22;21.90;48.10
49184;DHT22;35021;49.214;12.270;2023-05-07T08:27:49;21.80;48.10
49184;DHT22;35021;49.214;12.270;2023-05-07T08:30:16;21.80;48.00
49184;DHT22;35021;49.214;12.270;2023-05-07T08:32:43;21.80;48.00
49184;DHT22;35021;49.214;12.270;2023-05-07T08:35:10;21.80;48.10
49184;DHT22;35021;49.214;12.270;2023-05-07T08:37:37;21.70;48.00
49184;DHT22;35021;49.214;12.270;2023-05-07T08:40:04;21.80;48.30
49184;DHT22;35021;49.214;12.270;2023-05-07T08:42:36;21.70;48.20
49184;DHT22;35021;49.214;12.270;2023-05-07T08:45:09;21.80;48.20
49184;DHT22;35021;49.214;12.270;2023-05-07T08:47:44;21.80;48.20
49184;DHT22;35021;49.214;12.270;2023-05-07T08:50:12;21.80;48.10
49184;DHT22;35021;49.214;12.270;2023-05-07T08:52:40;21.90;48.00
49184;DHT22;35021;49.214;12.270;2023-05-07T08:55:08;21.90;47.90
49184;DHT22;35021;49.214;12.270;2023-05-07T08:57:35;22.00;48.00
49184;DHT22;35021;49.214;12.270;2023-05-07T09:00:04;22.10;47.80
49184;DHT22;35021;49.214;12.270;2023-05-07T09:02:37;22.20;47.60
49184;DHT22;35021;49.214;12.270;2023-05-07T09:05:06;22.20;47.40
49184;DHT22;35021;49.214;12.270;2023-05-07T09:07:33;22.30;47.10
49184;DHT22;35021;49.214;12.270;2023-05-07T09:10:04;22.40;47.00
49184;DHT22;35021;49.214;12.270;2023-05-07T09:12:32;22.40;47.10
49184;DHT22;35021;49.214;12.270;2023-05-07T09:15:00;22.50;47.10
49184;DHT22;35021;49.214;12.270;2023-05-07T09:17:28;22.50;47.00
49184;DHT22;35021;49.214;12.270;2023-05-07T09:19:55;22.60;46.90
49184;DHT22;35021;49.214;12.270;2023-05-07T09:22:22;22.60;46.90
49184;DHT22;35021;49.214;12.270;2023-05-07T09:24:51;22.70;46.80
49184;DHT22;35021;49.214;12.270;2023-05-07T09:27:18;22.70;47.00
49184;DHT22;35021;49.214;12.270;2023-05-07T09:29:45;22.70;47.00
49184;DHT22;35021;49.214;12.270;2023-05-07T09:32:12;22.70;47.00
49184;DHT22;35021;49.214;12.270;2023-05-07T09:34:39;22.70;46.90
49184;DHT22;35021;49.214;12.270;2023-05-07T09:37:06;22.70;46.80
49184;DHT22;35021;49.214;12.270;2023-05-07T09:39:45;22.60;46.90
49184;DHT22;35021;49.214;12.270;2023-05-07T09:42:13;22.60;47.00
49184;DHT22;35021;49.214;12.270;2023-05-07T09:44:43;22.50;47.10
49184;DHT22;35021;49.214;12.270;2023-05-07T09:47:11;22.40;47.40
49184;DHT22;35021;49.214;12.270;2023-05-07T09:49:47;22.40;47.60
49184;DHT22;35021;49.214;12.270;2023-05-07T09:52:16;22.30;47.70
49184;DHT22;35021;49.214;12.270;2023-05-07T09:54:43;22.30;47.80
49184;DHT22;35021;49.214;12.270;2023-05-07T09:57:11;22.30;47.90
49184;DHT22;35021;49.214;12.270;2023-05-07T09:59:42;22.20;47.90
49184;DHT22;35021;49.214;12.270;2023-05-07T10:02:09;22.20;48.10
49184;DHT22;35021;49.214;12.270;2023-05-07T10:04:37;22.20;48.10
49184;DHT22;35021;49.214;12.270;2023-05-07T10:07:04;22.20;48.20
49184;DHT22;35021;49.214;12.270;2023-05-07T10:09:32;22.10;48.20
49184;DHT22;35021;49.214;12.270;2023-05-07T10:11:59;22.10;48.20
49184;DHT22;35021;49.214;12.270;2023-05-07T10:14:27;22.10;48.10
49184;DHT22;35021;49.214;12.270;2023-05-07T10:16:55;22.10;48.10
49184;DHT22;35021;49.214;12.270;2023-05-07T10:19:23;22.10;48.00
49184;DHT22;35021;49.214;12.270;2023-05-07T10:22:05;22.10;48.00
49184;DHT22;35021;49.214;12.270;2023-05-07T10:24:33;22.10;48.00
49184;DHT22;35021;49.214;12.270;2023-05-07T10:27:04;22.10;48.10
49184;DHT22;35021;49.214;12.270;2023-05-07T10:29:50;22.10;48.20
49184;DHT22;35021;49.214;12.270;2023-05-07T10:32:35;22.10;48.10
49184;DHT22;35021;49.214;12.270;2023-05-07T10:35:10;22.10;48.20
49184;DHT22;35021;49.214;12.270;2023-05-07T10:37:38;22.00;48.10
49184;DHT22;35021;49.214;12.270;2023-05-07T10:40:06;22.00;48.10
49184;DHT22;35021;49.214;12.270;2023-05-07T10:42:33;22.00;48.10
49184;DHT22;35021;49.214;12.270;2023-05-07T10:45:14;22.00;48.20
49184;DHT22;35021;49.214;12.270;2023-05-07T10:48:08;22.00;48.30
49184;DHT22;35021;49.214;12.270;2023-05-07T10:51:20;21.90;48.30
49184;DHT22;35021;49.214;12.270;2023-05-07T10:53:47;21.90;48.50
49184;DHT22;35021;49.214;12.270;2023-05-07T10:58:45;21.80;48.60
49184;DHT22;35021;49.214;12.270;2023-05-07T11:01:11;21.80;48.60
49184;DHT22;35021;49.214;12.270;2023-05-07T11:04:12;21.80;48.70
49184;DHT22;35021;49.214;12.270;2023-05-07T11:06:40;21.80;48.70
49184;DHT22;35021;49.214;12.270;2023-05-07T11:09:07;21.80;48.70
49184;DHT22;35021;49.214;12.270;2023-05-07T11:11:47;21.90;48.70
49184;DHT22;35021;49.214;12.270;2023-05-07T11:14:43;21.90;49.40
49184;DHT22;35021;49.214;12.270;2023-05-07T11:17:11;21.90;48.60
49184;DHT22;35021;49.214;12.270;2023-05-07T11:19:51;21.90;48.50
49184;DHT22;35021;49.214;12.270;2023-05-07T11:25:06;21.90;48.50
49184;DHT22;35021;49.214;12.270;2023-05-07T11:27:33;22.00;48.50
49184;DHT22;35021;49.214;12.270;2023-05-07T11:30:00;22.00;48.60
49184;DHT22;35021;49.214;12.270;2023-05-07T11:32:30;22.00;48.40
49184;DHT22;35021;49.214;12.270;2023-05-07T11:34:58;22.00;48.50
49184;DHT22;35021;49.214;12.270;2023-05-07T11:37:27;22.00;48.50
49184;DHT22;35021;49.214;12.270;2023-05-07T11:40:09;22.00;48.60
49184;DHT22;35021;49.214;12.270;2023-05-07T11:42:39;22.00;48.70
49184;DHT22;35021;49.214;12.270;2023-05-07T11:45:07;22.00;48.90
49184;DHT22;35021;49.214;12.270;2023-05-07T11:47:35;22.00;48.90
49184;DHT22;35021;49.214;12.270;2023-05-07T11:50:04;22.00;48.90
49184;DHT22;35021;49.214;12.270;2023-05-07T11:52:31;21.90;49.00
49184;DHT22;35021;49.214;12.270;2023-05-07T11:55:00;21.90;49.00
49184;DHT22;35021;49.214;12.270;2023-05-07T11:57:28;21.90;49.00
49184;DHT22;35021;49.214;12.270;2023-05-07T11:59:58;21.90;49.00
49184;DHT22;35021;49.214;12.270;2023-05-07T12:02:26;21.80;49.00
49184;DHT22;35021;49.214;12.270;2023-05-07T12:04:53;21.80;49.00
49184;DHT22;35021;49.214;12.270;2023-05-07T12:07:21;21.80;49.10
49184;DHT22;35021;49.214;12.270;2023-05-07T12:09:48;21.80;49.20
49184;DHT22;35021;49.214;12.270;2023-05-07T12:12:15;21.80;49.30
49184;DHT22;35021;49.214;12.270;2023-05-07T12:14:45;21.80;49.40
49184;DHT22;35021;49.214;12.270;2023-05-07T12:17:14;21.80;49.20
49184;DHT22;35021;49.214;12.270;2023-05-07T12:19:43;21.80;49.20
49184;DHT22;35021;49.214;12.270;2023-05-07T12:22:10;21.80;49.10
49184;DHT22;35021;49.214;12.270;2023-05-07T12:24:49;21.80;49.00
49184;DHT22;35021;49.214;12.270;2023-05-07T12:27:17;21.80;49.00
49184;DHT22;35021;49.214;12.270;2023-05-07T12:29:47;21.70;49.00
49184;DHT22;35021;49.214;12.270;2023-05-07T12:32:16;21.70;49.00
49184;DHT22;35021;49.214;12.270;2023-05-07T12:34:44;21.70;48.90
49184;DHT22;35021;49.214;12.270;2023-05-07T12:37:12;21.70;48.80
49184;DHT22;35021;49.214;12.270;2023-05-07T12:39:49;21.70;48.80
49184;DHT22;35021;49.214;12.270;2023-05-07T12:42:20;21.70;48.80
49184;DHT22;35021;49.214;12.270;2023-05-07T12:44:52;21.70;48.70
49184;DHT22;35021;49.214;12.270;2023-05-07T12:47:19;21.70;48.60
49184;DHT22;35021;49.214;12.270;2023-05-07T12:49:47;21.80;48.60
49184;DHT22;35021;49.214;12.270;2023-05-07T12:52:18;21.80;48.80
49184;DHT22;35021;49.214;12.270;2023-05-07T12:54:48;21.80;49.00
49184;DHT22;35021;49.214;12.270;2023-05-07T12:57:19;21.80;49.10
49184;DHT22;35021;49.214;12.270;2023-05-07T12:59:46;21.80;49.10
49184;DHT22;35021;49.214;12.270;2023-05-07T13:02:13;21.80;49.40
49184;DHT22;35021;49.214;12.270;2023-05-07T13:04:40;21.80;49.40
49184;DHT22;35021;49.214;12.270;2023-05-07T13:07:07;21.80;49.30
49184;DHT22;35021;49.214;12.270;2023-05-07T13:09:34;21.90;49.40
49184;DHT22;35021;49.214;12.270;2023-05-07T13:12:04;21.90;49.50
49184;DHT22;35021;49.214;12.270;2023-05-07T13:14:31;21.90;49.50
49184;DHT22;35021;49.214;12.270;2023-05-07T13:16:58;21.90;49.60
49184;DHT22;35021;49.214;12.270;2023-05-07T13:19:25;21.90;49.50
49184;DHT22;35021;49.214;12.270;2023-05-07T13:21:51;21.90;49.40
49184;DHT22;35021;49.214;12.270;2023-05-07T13:24:18;22.00;49.50
49184;DHT22;35021;49.214;12.270;2023-05-07T13:26:45;22.00;49.40
49184;DHT22;35021;49.214;12.270;2023-05-07T13:29:12;22.00;49.30
49184;DHT22;35021;49.214;12.270;2023-05-07T13:31:39;22.00;49.40
49184;DHT22;35021;49.214;12.270;2023-05-07T13:34:09;22.00;49.40
49184;DHT22;35021;49.214;12.270;2023-05-07T13:36:36;22.00;49.30
49184;DHT22;35021;49.214;12.270;2023-05-07T13:39:06;22.00;49.20
49184;DHT22;35021;49.214;12.270;2023-05-07T13:41:33;22.00;49.10
49184;DHT22;35021;49.214;12.270;2023-05-07T13:44:00;22.00;49.20
49184;DHT22;35021;49.214;12.270;2023-05-07T13:46:27;22.10;49.20
49184;DHT22;35021;49.214;12.270;2023-05-07T13:48:54;22.00;49.00
49184;DHT22;35021;49.214;12.270;2023-05-07T13:51:21;22.10;49.10
49184;DHT22;35021;49.214;12.270;2023-05-07T13:53:48;22.10;49.10
49184;DHT22;35021;49.214;12.270;2023-05-07T13:56:16;22.10;49.00
49184;DHT22;35021;49.214;12.270;2023-05-07T13:58:43;22.10;48.90
49184;DHT22;35021;49.214;12.270;2023-05-07T14:01:25;22.10;48.80
49184;DHT22;35021;49.214;12.270;2023-05-07T14:03:52;22.10;48.70
49184;DHT22;35021;49.214;12.270;2023-05-07T14:06:19;22.10;48.60
49184;DHT22;35021;49.214;12.270;2023-05-07T14:08:46;22.10;48.50
49184;DHT22;35021;49.214;12.270;2023-05-07T14:11:13;22.10;48.50
49184;DHT22;35021;49.214;12.270;2023-05-07T14:13:40;22.10;48.50
49184;DHT22;35021;49.214;12.270;2023-05-07T14:16:07;22.10;48.60
49184;DHT22;35021;49.214;12.270;2023-05-07T14:18:34;22.00;48.60
49184;DHT22;35021;49.214;12.270;2023-05-07T14:21:04;21.90;48.60
49184;DHT22;35021;49.214;12.270;2023-05-07T14:23:32;21.90;48.60
49184;DHT22;35021;49.214;12.270;2023-05-07T14:25:59;21.80;48.60
49184;DHT22;35021;49.214;12.270;2023-05-07T14:28:26;21.80;48.70
49184;DHT22;35021;49.214;12.270;2023-05-07T14:30:53;21.70;48.70
49184;DHT22;35021;49.214;12.270;2023-05-07T14:33:20;21.70;48.80
49184;DHT22;35021;49.214;12.270;2023-05-07T14:35:47;21.70;48.70
49184;DHT22;35021;49.214;12.270;2023-05-07T14:38:15;21.60;48.60
49184;DHT22;35021;49.214;12.270;2023-05-07T14:40:42;21.60;48.50
49184;DHT22;35021;49.214;12.270;2023-05-07T14:43:09;21.60;48.40
49184;DHT22;35021;49.214;12.270;2023-05-07T14:45:36;21.70;48.30
49184;DHT22;35021;49.214;12.270;2023-05-07T14:48:03;21.60;47.90
49184;DHT22;35021;49.214;12.270;2023-05-07T14:50:30;21.60;47.80
49184;DHT22;35021;49.214;12.270;2023-05-07T14:53:00;21.60;47.70
49184;DHT22;35021;49.214;12.270;2023-05-07T14:55:28;21.60;47.60
49184;DHT22;35021;49.214;12.270;2023-05-07T14:57:55;21.60;47.60
49184;DHT22;35021;49.214;12.270;2023-05-07T15:00:22;21.60;48.20
49184;DHT22;35021;49.214;12.270;2023-05-07T15:02:49;21.70;47.50
49184;DHT22;35021;49.214;12.270;2023-05-07T15:05:16;21.70;47.60
49184;DHT22;35021;49.214;12.270;2023-05-07T15:07:45;21.70;47.60
49184;DHT22;35021;49.214;12.270;2023-05-07T15:10:13;21.70;47.60
49184;DHT22;35021;49.214;12.270;2023-05-07T15:12:43;21.70;47.60
49184;DHT22;35021;49.214;12.270;2023-05-07T15:15:10;21.70;47.60
49184;DHT22;35021;49.214;12.270;2023-05-07T15:17:37;21.80;47.60
49184;DHT22;35021;49.214;12.270;2023-05-07T15:20:05;21.80;47.50
49184;DHT22;35021;49.214;12.270;2023-05-07T15:22:32;21.80;47.60
49184;DHT22;35021;49.214;12.270;2023-05-07T15:24:59;21.80;47.60
49184;DHT22;35021;49.214;12.270;2023-05-07T15:27:26;21.80;47.60